createdAt,value
2019-05-21T00:02:21.434Z,12.49
2019-05-21T00:04:54.063Z,12.44
2019-05-21T00:07:26.177Z,12.44
2019-05-21T00:09:58.253Z,12.48
2019-05-21T00:12:30.423Z,12.48
2019-05-21T00:15:07.149Z,12.42
2019-05-21T00:17:42.406Z,12.38
2019-05-21T00:20:17.748Z,12.37
2019-05-21T00:22:49.976Z,12.36
2019-05-21T00:25:23.982Z,12.41
2019-05-21T00:28:00.854Z,12.41
2019-05-21T00:31:09.860Z,12.40
2019-05-21T00:34:17.703Z,12.41
2019-05-21T00:37:25.302Z,12.33
2019-05-21T00:40:32.495Z,12.25
2019-05-21T00:43:05.646Z,12.21
2019-05-21T00:45:37.723Z,12.12
2019-05-21T00:48:09.799Z,11.93
2019-05-21T00:50:41.869Z,11.84
2019-05-21T00:53:14.119Z,11.92
2019-05-21T00:55:49.752Z,11.92
2019-05-21T00:58:21.488Z,11.92
2019-05-21T01:00:53.631Z,11.88
2019-05-21T01:03:25.738Z,11.94
2019-05-21T01:05:57.893Z,11.96
2019-05-21T01:08:29.982Z,11.92
2019-05-21T01:11:03.896Z,11.84
2019-05-21T01:13:36.087Z,11.76
2019-05-21T01:16:08.269Z,11.70
2019-05-21T01:18:40.327Z,11.69
2019-05-21T01:21:12.532Z,11.70
2019-05-21T01:23:44.680Z,11.70
2019-05-21T01:26:17.265Z,11.57
2019-05-21T01:28:49.377Z,11.65
2019-05-21T01:31:21.696Z,11.65
2019-05-21T01:33:53.760Z,11.61
2019-05-21T01:36:25.979Z,11.67
2019-05-21T01:38:58.272Z,11.71
2019-05-21T01:41:30.512Z,11.73
2019-05-21T01:44:02.755Z,11.72
2019-05-21T01:46:34.832Z,11.79
2019-05-21T01:49:07.022Z,11.78
2019-05-21T01:51:40.845Z,11.70
2019-05-21T01:54:13.024Z,11.58
2019-05-21T01:56:45.112Z,11.55
2019-05-21T01:59:17.305Z,11.46
2019-05-21T02:01:49.364Z,11.39
2019-05-21T02:04:23.130Z,11.37
2019-05-21T02:06:55.752Z,11.30
2019-05-21T02:09:27.875Z,11.33
2019-05-21T02:12:05.638Z,11.34
2019-05-21T02:14:37.743Z,11.31
2019-05-21T02:17:09.971Z,11.34
2019-05-21T02:19:44.700Z,11.32
2019-05-21T02:22:16.750Z,11.38
2019-05-21T02:24:48.809Z,11.40
2019-05-21T02:27:21.892Z,11.28
2019-05-21T02:29:53.993Z,11.15
2019-05-21T02:32:26.063Z,11.06
2019-05-21T02:34:58.219Z,11.06
2019-05-21T02:37:30.260Z,11.08
2019-05-21T02:40:04.707Z,10.92
2019-05-21T02:42:37.544Z,10.91
2019-05-21T02:45:10.521Z,10.96
2019-05-21T02:47:43.225Z,11.01
2019-05-21T02:50:15.634Z,11.02
2019-05-21T02:52:49.331Z,10.98
2019-05-21T02:55:21.443Z,10.96
2019-05-21T02:57:53.468Z,11.04
2019-05-21T03:00:43.049Z,11.08
2019-05-21T03:03:16.486Z,10.97
2019-05-21T03:05:48.610Z,10.95
2019-05-21T03:08:21.587Z,10.91
2019-05-21T03:10:54.411Z,10.84
2019-05-21T03:13:26.580Z,10.84
2019-05-21T03:15:59.435Z,10.73
2019-05-21T03:18:31.571Z,10.66
2019-05-21T03:21:03.707Z,10.56
2019-05-21T03:23:35.790Z,10.62
2019-05-21T03:26:09.013Z,10.57
2019-05-21T03:28:44.273Z,10.53
2019-05-21T03:31:16.935Z,10.49
2019-05-21T03:33:49.063Z,10.47
2019-05-21T03:36:32.391Z,10.50
2019-05-21T03:38:54.929Z,10.48
2019-05-21T03:41:26.952Z,10.52
2019-05-21T03:44:01.885Z,10.58
2019-05-21T03:46:35.029Z,10.59
2019-05-21T03:52:24.598Z,10.38
2019-05-21T03:55:02.636Z,10.42
2019-05-21T03:57:32.074Z,10.32
2019-05-21T04:00:04.486Z,10.37
2019-05-21T04:02:38.580Z,10.35
2019-05-21T04:05:11.067Z,10.23
2019-05-21T04:07:44.935Z,10.27
2019-05-21T04:10:18.390Z,10.25
2019-05-21T04:13:09.033Z,10.20
2019-05-21T04:16:08.088Z,10.11
2019-05-21T04:18:48.135Z,9.92
2019-05-21T04:21:20.208Z,9.81
2019-05-21T04:23:52.323Z,9.77
2019-05-21T04:26:24.389Z,9.74
2019-05-21T04:28:58.723Z,9.77
2019-05-21T04:31:30.916Z,9.73
2019-05-21T04:34:04.738Z,9.75
2019-05-21T04:36:36.931Z,9.77
2019-05-21T04:39:10.505Z,9.81
2019-05-21T04:41:42.688Z,9.89
2019-05-21T04:44:17.047Z,9.89
2019-05-21T04:46:49.040Z,9.90
2019-05-21T04:49:21.072Z,9.94
2019-05-21T04:51:53.562Z,9.98
2019-05-21T04:54:25.567Z,10.06
2019-05-21T04:57:00.298Z,10.09
2019-05-21T04:59:32.630Z,10.12
2019-05-21T05:02:06.423Z,10.01
2019-05-21T05:04:38.433Z,9.96
2019-05-21T05:07:25.205Z,10.00
2019-05-21T05:09:44.260Z,9.98
2019-05-21T05:12:16.326Z,9.88
2019-05-21T05:14:48.343Z,9.80
2019-05-21T05:17:20.451Z,9.80
2019-05-21T05:19:52.701Z,9.82
2019-05-21T05:22:25.579Z,9.89
2019-05-21T05:24:57.678Z,9.90
2019-05-21T05:27:29.766Z,9.97
2019-05-21T05:30:01.806Z,9.98
2019-05-21T05:32:33.844Z,10.05
2019-05-21T05:35:06.232Z,10.16
2019-05-21T05:37:44.203Z,10.29
2019-05-21T05:40:13.273Z,10.37
2019-05-21T05:42:45.787Z,10.43
2019-05-21T05:45:18.381Z,10.59
2019-05-21T05:47:50.565Z,10.66
2019-05-21T05:50:25.699Z,10.59
2019-05-21T05:52:59.730Z,10.43
2019-05-21T05:55:32.312Z,10.62
2019-05-21T05:58:04.592Z,10.68
2019-05-21T06:00:36.879Z,11.08
2019-05-21T06:03:09.162Z,12.83
2019-05-21T06:05:41.332Z,14.78
2019-05-21T06:08:16.482Z,16.09
2019-05-21T06:10:49.287Z,17.54
2019-05-21T06:13:21.443Z,19.31
2019-05-21T06:15:53.730Z,20.40
2019-05-21T06:18:25.873Z,21.97
2019-05-21T06:20:58.170Z,23.19
2019-05-21T06:23:30.358Z,22.38
2019-05-21T06:26:02.535Z,23.43
2019-05-21T06:28:34.683Z,24.21
2019-05-21T06:31:17.891Z,23.71
2019-05-21T06:33:55.199Z,24.25
2019-05-21T06:36:27.267Z,25.95
2019-05-21T06:38:59.894Z,27.03
2019-05-21T06:41:32.557Z,27.84
2019-05-21T06:44:05.069Z,26.89
2019-05-21T06:46:38.444Z,28.98
2019-05-21T06:49:11.771Z,29.22
2019-05-21T06:51:44.034Z,28.50
2019-05-21T06:54:16.187Z,29.25
2019-05-21T06:56:50.095Z,29.26
2019-05-21T06:59:22.453Z,27.74
2019-05-21T07:01:55.206Z,27.59
2019-05-21T07:04:27.718Z,26.36
2019-05-21T07:06:59.898Z,28.14
2019-05-21T07:09:32.063Z,28.35
2019-05-21T07:12:04.403Z,27.27
2019-05-21T07:14:38.100Z,28.06
2019-05-21T07:17:10.341Z,28.96
2019-05-21T07:19:42.471Z,30.23
2019-05-21T07:22:15.991Z,31.61
2019-05-21T07:24:48.102Z,31.41
2019-05-21T07:27:21.839Z,31.31
2019-05-21T07:29:55.325Z,33.56
2019-05-21T07:32:27.411Z,33.16
2019-05-21T07:34:59.512Z,34.30
2019-05-21T07:37:33.167Z,35.50
2019-05-21T07:40:06.146Z,36.06
2019-05-21T07:42:38.312Z,35.53
2019-05-21T07:45:11.060Z,36.07
2019-05-21T07:47:43.273Z,36.71
2019-05-21T07:50:18.330Z,35.86
2019-05-21T07:52:50.528Z,34.74
2019-05-21T07:55:25.954Z,36.25
2019-05-21T07:57:57.974Z,34.67
2019-05-21T08:00:34.609Z,36.93
2019-05-21T08:03:07.877Z,37.40
2019-05-21T08:05:39.851Z,37.37
2019-05-21T08:08:11.891Z,37.56
2019-05-21T08:10:50.939Z,38.27
2019-05-21T08:13:38.822Z,38.34
2019-05-21T08:16:16.120Z,38.84
2019-05-21T08:18:56.264Z,39.35
2019-05-21T08:21:28.923Z,39.57
2019-05-21T08:24:01.570Z,38.92
2019-05-21T08:26:35.339Z,39.10
2019-05-21T08:29:08.722Z,38.87
2019-05-21T08:31:41.327Z,38.07
2019-05-21T08:34:13.505Z,38.34
2019-05-21T08:36:45.605Z,37.47
2019-05-21T08:39:28.174Z,36.83
2019-05-21T08:41:54.448Z,38.08
2019-05-21T08:44:26.558Z,37.63
2019-05-21T08:46:58.774Z,38.93
2019-05-21T08:49:32.819Z,39.95
2019-05-21T08:52:05.266Z,41.00
2019-05-21T08:54:56.125Z,41.96
2019-05-21T08:57:26.501Z,40.57
2019-05-21T08:59:58.555Z,40.84
2019-05-21T09:02:30.868Z,41.67
2019-05-21T09:05:03.284Z,43.10
2019-05-21T09:07:36.151Z,43.23
2019-05-21T09:10:09.564Z,43.25
2019-05-21T09:12:43.069Z,42.13
2019-05-21T09:15:16.133Z,41.77
2019-05-21T09:17:48.182Z,40.85
2019-05-21T09:20:21.220Z,41.48
2019-05-21T09:22:56.801Z,41.69
2019-05-21T09:25:31.536Z,42.81
2019-05-21T09:28:03.744Z,42.37
2019-05-21T09:30:35.852Z,42.99
2019-05-21T09:33:08.038Z,43.58
2019-05-21T09:35:40.156Z,42.12
2019-05-21T09:38:12.115Z,42.32
2019-05-21T09:40:44.308Z,40.97
2019-05-21T09:43:16.304Z,42.69
2019-05-21T09:45:48.287Z,43.65
2019-05-21T09:48:23.824Z,44.15
2019-05-21T09:50:55.787Z,43.43
2019-05-21T09:53:27.766Z,43.81
2019-05-21T09:56:02.137Z,43.70
2019-05-21T09:58:43.486Z,43.80
2019-05-21T10:01:34.348Z,44.35
2019-05-21T10:04:06.708Z,43.90
2019-05-21T10:06:38.787Z,45.03
2019-05-21T10:09:16.272Z,45.77
2019-05-21T10:11:48.801Z,45.95
2019-05-21T10:14:21.151Z,42.85
2019-05-21T10:16:53.176Z,43.95
2019-05-21T10:19:25.272Z,43.04
2019-05-21T10:21:57.447Z,42.58
2019-05-21T10:24:30.856Z,42.94
2019-05-21T10:27:03.637Z,42.33
2019-05-21T10:29:37.998Z,43.23
2019-05-21T10:32:10.098Z,43.55
2019-05-21T10:34:42.265Z,44.24
2019-05-21T10:37:14.257Z,43.15
2019-05-21T10:39:46.990Z,42.29
2019-05-21T10:42:20.792Z,42.91
2019-05-21T10:44:52.791Z,41.49
2019-05-21T10:47:24.777Z,43.34
2019-05-21T10:49:56.839Z,44.11
2019-05-21T10:52:28.848Z,41.15
2019-05-21T10:55:00.922Z,41.08
2019-05-21T10:57:32.967Z,42.16
2019-05-21T11:00:07.147Z,44.15
2019-05-21T11:02:45.632Z,44.98
2019-05-21T11:05:42.731Z,45.09
2019-05-21T11:08:24.074Z,42.20
2019-05-21T11:10:48.626Z,39.88
2019-05-21T11:13:20.799Z,38.62
2019-05-21T11:15:52.861Z,41.07
2019-05-21T11:18:24.902Z,42.81
2019-05-21T11:20:56.916Z,43.70
2019-05-21T11:23:29.008Z,44.28
2019-05-21T11:26:00.991Z,43.22
2019-05-21T11:28:33.397Z,40.62
2019-05-21T11:31:05.443Z,40.82
2019-05-21T11:33:38.458Z,41.45
2019-05-21T11:36:13.021Z,37.94
2019-05-21T11:38:45.380Z,36.98
2019-05-21T11:41:17.548Z,34.63
2019-05-21T11:43:49.592Z,32.84
2019-05-21T11:46:21.714Z,31.29
2019-05-21T11:48:53.731Z,30.91
2019-05-21T11:51:27.248Z,30.07
2019-05-21T11:54:03.036Z,30.17
2019-05-21T11:56:36.321Z,29.56
2019-05-21T11:59:08.741Z,29.19
2019-05-21T12:01:40.792Z,28.74
2019-05-21T12:04:16.895Z,28.20
2019-05-21T12:06:50.444Z,28.08
2019-05-21T12:09:24.038Z,27.86
2019-05-21T12:11:56.151Z,28.25
2019-05-21T12:14:28.212Z,28.24
2019-05-21T12:17:00.307Z,28.15
2019-05-21T12:19:32.369Z,28.46
2019-05-21T12:22:04.517Z,28.47
2019-05-21T12:24:36.549Z,28.82
2019-05-21T12:27:08.582Z,28.72
2019-05-21T12:29:40.534Z,28.75
2019-05-21T12:32:12.716Z,29.03
2019-05-21T12:34:44.780Z,29.34
2019-05-21T12:37:18.392Z,29.36
2019-05-21T12:39:50.554Z,28.86
2019-05-21T12:42:26.075Z,28.61
2019-05-21T12:44:58.146Z,29.32
2019-05-21T12:47:30.230Z,29.09
2019-05-21T12:50:02.231Z,28.71
2019-05-21T12:52:34.327Z,29.21
2019-05-21T12:55:08.957Z,28.73
2019-05-21T12:57:40.969Z,28.10
2019-05-21T13:00:15.424Z,28.10
2019-05-21T13:02:47.461Z,28.09
2019-05-21T13:05:19.463Z,27.72
2019-05-21T13:07:51.604Z,28.07
2019-05-21T13:10:26.800Z,28.22
2019-05-21T13:12:57.424Z,28.24
2019-05-21T13:15:33.919Z,28.10
2019-05-21T13:18:07.120Z,28.16
2019-05-21T13:20:39.096Z,28.19
2019-05-21T13:23:11.132Z,27.95
2019-05-21T13:25:43.255Z,28.54
2019-05-21T13:28:15.232Z,28.58
2019-05-21T13:30:49.060Z,28.34
2019-05-21T13:33:21.104Z,28.34
2019-05-21T13:35:53.445Z,28.51
2019-05-21T13:38:25.836Z,28.31
2019-05-21T13:40:59.122Z,28.28
2019-05-21T13:43:33.920Z,28.47
2019-05-21T13:46:06.348Z,28.20
2019-05-21T13:48:38.331Z,28.20
2019-05-21T13:51:17.695Z,27.87
2019-05-21T13:53:54.758Z,27.74
2019-05-21T13:56:26.816Z,27.27
2019-05-21T13:59:01.709Z,27.48
2019-05-21T14:01:40.596Z,27.18
2019-05-21T14:04:08.910Z,27.29
2019-05-21T14:06:40.881Z,27.86
2019-05-21T14:09:13.971Z,28.37
2019-05-21T14:11:46.082Z,28.58
2019-05-21T14:14:18.100Z,28.81
2019-05-21T14:16:50.046Z,29.08
2019-05-21T14:19:22.135Z,28.92
2019-05-21T14:21:54.112Z,29.03
2019-05-21T14:24:27.626Z,28.99
2019-05-21T14:26:59.615Z,28.87
2019-05-21T14:29:31.636Z,28.69
2019-05-21T14:32:03.749Z,28.55
2019-05-21T14:34:35.835Z,28.58
2019-05-21T14:37:07.802Z,27.84
2019-05-21T14:39:39.793Z,27.84
2019-05-21T14:42:12.187Z,27.82
2019-05-21T14:44:53.205Z,27.43
2019-05-21T14:47:26.073Z,27.66
2019-05-21T14:50:02.092Z,27.41
2019-05-21T14:52:34.072Z,27.30
2019-05-21T14:55:08.066Z,27.74
2019-05-21T14:57:40.111Z,27.44
2019-05-21T15:00:27.159Z,27.12
2019-05-21T15:02:59.697Z,27.15
2019-05-21T15:05:31.865Z,27.08
2019-05-21T15:08:05.942Z,26.93
2019-05-21T15:10:48.696Z,26.58
2019-05-21T15:13:13.289Z,26.73
2019-05-21T15:15:45.254Z,26.50
2019-05-21T15:18:22.070Z,26.74
2019-05-21T15:21:14.649Z,26.43
2019-05-21T15:23:48.428Z,26.23
2019-05-21T15:26:20.974Z,26.19
2019-05-21T15:28:54.137Z,26.21
2019-05-21T15:31:28.674Z,25.96
2019-05-21T15:34:00.720Z,25.88
2019-05-21T15:36:33.443Z,25.79
2019-05-21T15:39:07.452Z,25.78
2019-05-21T15:41:39.618Z,25.97
2019-05-21T15:44:11.620Z,25.93
2019-05-21T15:46:50.311Z,25.74
2019-05-21T15:49:17.779Z,25.83
2019-05-21T15:51:49.944Z,25.76
2019-05-21T15:54:22.682Z,25.73
2019-05-21T15:56:55.085Z,25.70
2019-05-21T15:59:35.118Z,25.60
2019-05-21T16:02:09.130Z,25.59
2019-05-21T16:04:44.826Z,25.20
2019-05-21T16:07:19.287Z,25.30
2019-05-21T16:09:52.766Z,25.31
2019-05-21T16:12:26.497Z,25.32
2019-05-21T16:18:20.944Z,25.58
2019-05-21T16:20:53.152Z,25.22
2019-05-21T16:23:25.133Z,25.29
2019-05-21T16:25:59.208Z,24.58
2019-05-21T16:28:31.240Z,24.40
2019-05-21T16:31:03.209Z,24.21
2019-05-21T16:33:35.172Z,24.23
2019-05-21T16:36:07.164Z,24.31
2019-05-21T16:38:39.247Z,24.34
2019-05-21T16:41:11.207Z,24.39
2019-05-21T16:43:43.219Z,24.26
2019-05-21T16:46:15.412Z,24.28
2019-05-21T16:48:47.524Z,23.96
2019-05-21T16:51:19.617Z,24.19
2019-05-21T16:53:52.047Z,24.07
2019-05-21T16:56:24.084Z,23.86
2019-05-21T16:59:17.256Z,23.79
2019-05-21T17:01:54.253Z,23.64
2019-05-21T17:04:46.386Z,23.71
2019-05-21T17:07:27.257Z,23.52
2019-05-21T17:10:13.009Z,23.48
2019-05-21T17:12:54.974Z,23.51
2019-05-21T17:15:27.179Z,23.56
2019-05-21T17:18:16.396Z,23.81
2019-05-21T17:20:49.898Z,23.97
2019-05-21T17:23:21.908Z,23.79
2019-05-21T17:25:54.046Z,23.68
2019-05-21T17:28:26.053Z,23.59
2019-05-21T17:30:58.039Z,23.37
2019-05-21T17:33:30.044Z,23.46
2019-05-21T17:36:14.149Z,23.52
2019-05-21T17:39:02.946Z,23.52
2019-05-21T17:42:15.443Z,23.61
2019-05-21T17:44:45.823Z,23.45
2019-05-21T17:47:17.815Z,23.48
2019-05-21T17:49:49.845Z,23.21
2019-05-21T17:52:21.835Z,23.08
2019-05-21T17:54:57.053Z,22.97
2019-05-21T17:57:29.001Z,23.20
2019-05-21T18:00:01.005Z,23.12
2019-05-21T18:02:33.298Z,22.91
2019-05-21T18:05:10.216Z,22.98
2019-05-21T18:07:43.202Z,23.07
2019-05-21T18:10:17.357Z,23.24
2019-05-21T18:12:49.491Z,23.28
2019-05-21T18:15:21.925Z,23.31
2019-05-21T18:17:53.995Z,23.17
2019-05-21T18:20:26.583Z,23.02
2019-05-21T18:22:58.922Z,22.68
2019-05-21T18:25:30.971Z,22.63
2019-05-21T18:28:02.988Z,22.60
2019-05-21T18:30:35.056Z,22.45
2019-05-21T18:33:07.222Z,22.13
2019-05-21T18:35:39.198Z,22.23
2019-05-21T18:38:11.370Z,21.88
2019-05-21T18:40:43.369Z,21.80
2019-05-21T18:43:15.594Z,21.74
2019-05-21T18:45:47.705Z,21.58
2019-05-21T18:48:19.747Z,21.62
2019-05-21T18:50:51.932Z,21.71
2019-05-21T18:53:25.207Z,21.73
2019-05-21T18:55:57.186Z,21.63
2019-05-21T18:58:30.143Z,21.50
2019-05-21T19:01:04.382Z,21.58
2019-05-21T19:03:38.915Z,21.52
2019-05-21T19:06:11.083Z,21.48
2019-05-21T19:08:46.175Z,21.42
2019-05-21T19:11:18.663Z,21.37
2019-05-21T19:13:50.805Z,21.26
2019-05-21T19:16:22.779Z,21.08
2019-05-21T19:18:54.755Z,20.99
2019-05-21T19:21:26.950Z,20.81
2019-05-21T19:24:00.357Z,20.82
2019-05-21T19:26:32.776Z,20.71
2019-05-21T19:29:07.787Z,20.66
2019-05-21T19:31:39.830Z,20.46
2019-05-21T19:34:12.006Z,20.39
2019-05-21T19:36:44.194Z,20.35
2019-05-21T19:39:18.369Z,20.27
2019-05-21T19:41:50.584Z,20.19
2019-05-21T19:44:22.605Z,20.15
2019-05-21T19:46:54.618Z,20.07
2019-05-21T19:49:26.813Z,19.99
2019-05-21T19:52:00.454Z,19.89
2019-05-21T19:54:35.716Z,19.80
2019-05-21T19:57:09.944Z,19.71
2019-05-21T19:59:43.536Z,19.63
2019-05-21T20:02:15.794Z,19.50
2019-05-21T20:04:49.128Z,19.39
2019-05-21T20:07:21.206Z,19.26
2019-05-21T20:09:54.251Z,19.17
2019-05-21T20:12:28.848Z,19.10
2019-05-21T20:15:01.433Z,19.02
2019-05-21T20:17:37.368Z,18.95
2019-05-21T20:20:12.124Z,18.86
2019-05-21T20:22:45.671Z,18.81
2019-05-21T20:25:18.706Z,18.73
2019-05-21T20:27:50.772Z,18.61
2019-05-21T20:30:25.293Z,18.55
2019-05-21T20:32:58.313Z,18.54
2019-05-21T20:35:31.499Z,18.42
2019-05-21T20:38:06.346Z,18.35
2019-05-21T20:40:38.499Z,18.29
2019-05-21T20:43:12.716Z,18.20
2019-05-21T20:45:46.370Z,18.09
2019-05-21T20:48:19.867Z,18.10
2019-05-21T20:50:52.354Z,18.03
2019-05-21T20:53:24.309Z,17.96
2019-05-21T20:55:57.311Z,17.97
2019-05-21T20:58:32.455Z,17.87
2019-05-21T21:01:06.202Z,17.77
2019-05-21T21:03:38.430Z,17.74
2019-05-21T21:06:14.777Z,17.70
2019-05-21T21:08:47.754Z,17.67
2019-05-21T21:11:20.382Z,17.61
2019-05-21T21:13:52.735Z,17.55
2019-05-21T21:16:24.706Z,17.55
2019-05-21T21:18:56.862Z,17.51
2019-05-21T21:21:29.277Z,17.44
2019-05-21T21:24:03.061Z,17.35
2019-05-21T21:26:35.218Z,17.32
2019-05-21T21:29:07.489Z,17.30
2019-05-21T21:31:39.472Z,17.18
2019-05-21T21:34:11.527Z,17.19
2019-05-21T21:36:43.852Z,17.15
2019-05-21T21:39:16.771Z,17.16
2019-05-21T21:41:50.223Z,17.07
2019-05-21T21:44:33.424Z,17.01
2019-05-21T21:46:58.301Z,17.00
2019-05-21T21:49:30.646Z,17.00
2019-05-21T21:52:02.725Z,16.99
2019-05-21T21:54:34.935Z,16.90
2019-05-21T21:57:07.214Z,16.83
2019-05-21T21:59:39.466Z,16.76
2019-05-21T22:02:23.513Z,16.67
2019-05-21T22:04:57.538Z,16.63
2019-05-21T22:07:30.757Z,16.59
2019-05-21T22:10:04.890Z,16.52
2019-05-21T22:12:38.859Z,16.48
2019-05-21T22:15:12.276Z,16.43
2019-05-21T22:17:44.562Z,16.41
2019-05-21T22:20:16.681Z,16.34
2019-05-21T22:22:48.836Z,16.34
2019-05-21T22:25:20.969Z,16.16
2019-05-21T22:27:53.329Z,16.12
2019-05-21T22:30:28.184Z,16.10
2019-05-21T22:33:02.062Z,16.07
2019-05-21T22:35:34.373Z,16.06
2019-05-21T22:38:06.504Z,16.02
2019-05-21T22:40:38.680Z,15.89
2019-05-21T22:43:10.737Z,15.78
2019-05-21T22:45:42.797Z,15.79
2019-05-21T22:48:15.074Z,15.75
2019-05-21T22:50:48.585Z,15.70
2019-05-21T22:53:31.712Z,15.67
2019-05-21T22:56:03.701Z,15.62
2019-05-21T22:58:37.168Z,15.59
2019-05-21T23:01:12.064Z,15.54
2019-05-21T23:03:58.977Z,15.42
2019-05-21T23:07:09.275Z,15.37
2019-05-21T23:09:47.905Z,15.36
2019-05-21T23:12:20.462Z,15.28
2019-05-21T23:15:23.887Z,15.35
2019-05-21T23:17:59.680Z,15.32
2019-05-21T23:20:37.902Z,15.21
2019-05-21T23:23:11.939Z,15.13
2019-05-21T23:25:44.599Z,15.01
2019-05-21T23:28:17.124Z,15.02
2019-05-21T23:30:59.951Z,15.00
2019-05-21T23:33:32.099Z,14.92
2019-05-21T23:36:05.918Z,14.91
2019-05-21T23:38:40.856Z,14.88
2019-05-21T23:41:13.084Z,14.90
2019-05-21T23:43:54.190Z,14.89
2019-05-21T23:46:26.477Z,14.90
2019-05-21T23:48:58.700Z,14.82
2019-05-21T23:51:31.164Z,14.84
2019-05-21T23:54:21.657Z,14.77
